createdAt,value
2023-05-04T00:02:21.698Z,7.40
2023-05-04T00:04:52.525Z,7.41
2023-05-04T00:07:23.854Z,7.32
2023-05-04T00:09:54.009Z,7.21
2023-05-04T00:12:21.264Z,7.33
2023-05-04T00:14:48.808Z,7.29
2023-05-04T00:17:17.263Z,7.24
2023-05-04T00:19:46.313Z,7.13
2023-05-04T00:22:14.665Z,7.09
2023-05-04T00:24:46.937Z,7.10
2023-05-04T00:27:14.382Z,7.10
2023-05-04T00:29:41.548Z,7.10
2023-05-04T00:32:10.011Z,7.10
2023-05-04T00:34:37.584Z,7.03
2023-05-04T00:37:08.165Z,7.02
2023-05-04T00:39:38.999Z,7.02
2023-05-04T00:42:07.543Z,6.85
2023-05-04T00:44:37.033Z,6.82
2023-05-04T00:47:07.345Z,6.90
2023-05-04T00:49:34.542Z,6.82
2023-05-04T00:52:02.925Z,6.77
2023-05-04T00:54:29.892Z,6.80
2023-05-04T00:56:56.571Z,6.82
2023-05-04T00:59:23.133Z,6.72
2023-05-04T01:01:49.667Z,6.77
2023-05-04T01:04:16.774Z,6.77
2023-05-04T01:07:03.518Z,6.77
2023-05-04T01:09:43.090Z,6.65
2023-05-04T01:12:20.746Z,6.66
2023-05-04T01:14:48.491Z,6.61
2023-05-04T01:17:14.992Z,6.57
2023-05-04T01:19:41.580Z,6.52
2023-05-04T01:22:08.143Z,6.68
2023-05-04T01:24:34.925Z,6.56
2023-05-04T01:27:46.583Z,6.51
2023-05-04T01:30:23.813Z,6.48
2023-05-04T01:32:51.311Z,6.48
2023-05-04T01:35:18.514Z,6.46
2023-05-04T01:37:47.143Z,6.39
2023-05-04T01:40:13.743Z,6.42
2023-05-04T01:42:40.243Z,6.52
2023-05-04T01:45:07.974Z,6.44
2023-05-04T01:47:34.805Z,6.45
2023-05-04T01:50:01.498Z,6.42
2023-05-04T01:52:28.165Z,6.34
2023-05-04T01:54:54.674Z,6.29
2023-05-04T01:57:21.209Z,6.27
2023-05-04T01:59:47.737Z,6.25
2023-05-04T02:02:14.308Z,6.29
2023-05-04T02:04:41.429Z,6.26
2023-05-04T02:07:08.371Z,6.25
2023-05-04T02:09:35.505Z,6.13
2023-05-04T02:12:02.731Z,6.06
2023-05-04T02:14:29.212Z,6.06
2023-05-04T02:16:55.978Z,6.10
2023-05-04T02:19:22.476Z,6.06
2023-05-04T02:21:49.003Z,6.05
2023-05-04T02:24:15.492Z,5.99
2023-05-04T02:26:41.994Z,5.95
2023-05-04T02:29:08.569Z,5.92
2023-05-04T02:31:35.379Z,5.92
2023-05-04T02:34:02.280Z,5.95
2023-05-04T02:36:29.790Z,5.90
2023-05-04T02:38:56.388Z,5.88
2023-05-04T02:41:23.016Z,5.89
2023-05-04T02:43:51.642Z,5.83
2023-05-04T02:46:20.010Z,5.90
2023-05-04T02:48:46.783Z,5.91
2023-05-04T02:51:13.247Z,5.82
2023-05-04T02:53:39.777Z,5.81
2023-05-04T02:56:06.393Z,5.83
2023-05-04T02:58:32.908Z,5.84
2023-05-04T03:00:59.554Z,5.86
2023-05-04T03:03:26.451Z,5.81
2023-05-04T03:05:53.226Z,5.78
2023-05-04T03:08:19.782Z,5.73
2023-05-04T03:10:46.348Z,5.66
2023-05-04T03:13:13.023Z,5.66
2023-05-04T03:15:39.697Z,5.60
2023-05-04T03:18:06.750Z,5.59
2023-05-04T03:20:34.044Z,5.58
2023-05-04T03:23:01.398Z,5.61
2023-05-04T03:25:28.143Z,5.52
2023-05-04T03:27:55.442Z,5.56
2023-05-04T03:30:21.924Z,5.52
2023-05-04T03:32:48.982Z,5.49
2023-05-04T03:35:17.464Z,5.47
2023-05-04T03:37:50.248Z,5.49
2023-05-04T03:40:16.779Z,5.59
2023-05-04T03:42:43.332Z,5.63
2023-05-04T03:45:10.666Z,5.55
2023-05-04T03:47:37.312Z,5.50
2023-05-04T03:50:04.221Z,5.53
2023-05-04T03:52:30.974Z,5.54
2023-05-04T03:54:57.698Z,5.54
2023-05-04T03:57:24.346Z,5.55
2023-05-04T03:59:51.875Z,5.56
2023-05-04T04:02:18.520Z,5.65
2023-05-04T04:04:45.189Z,5.83
2023-05-04T04:07:11.822Z,5.97
2023-05-04T04:09:38.979Z,6.19
2023-05-04T04:12:05.735Z,6.30
2023-05-04T04:14:32.239Z,6.43
2023-05-04T04:16:58.718Z,6.61
2023-05-04T04:19:25.303Z,6.62
2023-05-04T04:21:51.811Z,6.70
2023-05-04T04:24:18.306Z,6.68
2023-05-04T04:26:44.814Z,6.73
2023-05-04T04:29:12.204Z,6.76
2023-05-04T04:31:40.353Z,6.80
2023-05-04T04:34:06.906Z,6.95
2023-05-04T04:36:33.819Z,6.93
2023-05-04T04:39:00.473Z,6.95
2023-05-04T04:41:27.110Z,7.00
2023-05-04T04:43:53.608Z,6.99
2023-05-04T04:46:20.118Z,7.04
2023-05-04T04:48:47.154Z,7.11
2023-05-04T04:51:13.765Z,7.17
2023-05-04T04:53:40.329Z,7.22
2023-05-04T04:56:10.040Z,7.23
2023-05-04T04:58:36.600Z,7.31
2023-05-04T05:01:04.882Z,7.36
2023-05-04T05:03:32.240Z,7.40
2023-05-04T05:06:01.668Z,7.45
2023-05-04T05:08:28.434Z,7.59
2023-05-04T05:10:54.924Z,7.75
2023-05-04T05:13:21.513Z,7.96
2023-05-04T05:15:48.205Z,7.89
2023-05-04T05:18:14.803Z,7.96
2023-05-04T05:20:41.303Z,8.11
2023-05-04T05:23:07.804Z,8.01
2023-05-04T05:25:34.320Z,8.11
2023-05-04T05:28:00.794Z,8.26
2023-05-04T05:30:28.536Z,8.52
2023-05-04T05:32:55.170Z,8.57
2023-05-04T05:35:21.968Z,8.45
2023-05-04T05:37:51.977Z,8.39
2023-05-04T05:40:19.136Z,8.49
2023-05-04T05:42:45.685Z,8.54
2023-05-04T05:45:12.236Z,8.66
2023-05-04T05:47:38.814Z,8.64
2023-05-04T05:50:06.503Z,8.96
2023-05-04T05:52:33.150Z,8.90
2023-05-04T05:55:02.226Z,8.90
2023-05-04T05:57:29.381Z,8.87
2023-05-04T05:59:56.649Z,9.22
2023-05-04T06:02:23.711Z,9.11
2023-05-04T06:04:50.459Z,9.06
2023-05-04T06:07:17.817Z,9.14
2023-05-04T06:09:44.355Z,9.21
2023-05-04T06:12:13.535Z,9.43
2023-05-04T06:14:40.196Z,9.42
2023-05-04T06:17:06.761Z,9.38
2023-05-04T06:19:37.971Z,9.43
2023-05-04T06:22:05.224Z,9.51
2023-05-04T06:24:32.884Z,9.74
2023-05-04T06:26:59.442Z,9.79
2023-05-04T06:29:26.001Z,9.73
2023-05-04T06:31:52.554Z,9.87
2023-05-04T06:34:19.223Z,9.92
2023-05-04T06:36:45.770Z,9.96
2023-05-04T06:39:12.284Z,9.91
2023-05-04T06:41:38.870Z,9.93
2023-05-04T06:44:05.605Z,9.95
2023-05-04T06:46:35.311Z,10.24
2023-05-04T06:49:01.816Z,10.32
2023-05-04T06:51:28.303Z,10.57
2023-05-04T06:53:54.806Z,10.50
2023-05-04T06:56:21.829Z,10.63
2023-05-04T06:58:48.809Z,10.74
2023-05-04T07:01:17.700Z,10.67
2023-05-04T07:03:45.261Z,10.89
2023-05-04T07:06:12.281Z,11.02
2023-05-04T07:08:39.542Z,11.09
2023-05-04T07:11:06.060Z,11.53
2023-05-04T07:13:32.520Z,11.80
2023-05-04T07:15:59.031Z,12.35
2023-05-04T07:18:25.505Z,12.43
2023-05-04T07:20:53.016Z,12.66
2023-05-04T07:23:22.744Z,12.80
2023-05-04T07:25:49.244Z,13.25
2023-05-04T07:28:16.670Z,13.74
2023-05-04T07:30:43.391Z,14.31
2023-05-04T07:33:10.109Z,15.05
2023-05-04T07:35:36.766Z,15.77
2023-05-04T07:38:03.436Z,16.39
2023-05-04T07:40:29.914Z,16.29
2023-05-04T07:42:56.820Z,16.24
2023-05-04T07:45:23.461Z,16.73
2023-05-04T07:47:51.890Z,17.99
2023-05-04T07:50:19.714Z,18.76
2023-05-04T07:52:47.781Z,18.28
2023-05-04T07:55:14.282Z,18.35
2023-05-04T07:57:41.293Z,17.06
2023-05-04T08:00:09.658Z,16.70
2023-05-04T08:02:42.161Z,17.46
2023-05-04T08:05:09.179Z,17.44
2023-05-04T08:07:36.337Z,16.79
2023-05-04T08:10:03.831Z,16.54
2023-05-04T08:12:30.851Z,16.12
2023-05-04T08:14:57.789Z,15.50
2023-05-04T08:17:24.553Z,15.40
2023-05-04T08:19:51.325Z,15.25
2023-05-04T08:22:18.206Z,15.09
2023-05-04T08:24:47.352Z,14.86
2023-05-04T08:27:16.840Z,14.74
2023-05-04T08:29:43.308Z,14.79
2023-05-04T08:32:10.041Z,15.06
2023-05-04T08:34:37.316Z,15.25
2023-05-04T08:37:04.399Z,15.11
2023-05-04T08:39:30.989Z,14.80
2023-05-04T08:41:57.543Z,14.86
2023-05-04T08:44:24.254Z,14.72
2023-05-04T08:46:54.200Z,14.54
2023-05-04T08:49:21.907Z,14.58
2023-05-04T08:51:53.198Z,14.63
2023-05-04T08:54:20.981Z,14.74
2023-05-04T08:56:48.341Z,14.59
2023-05-04T08:59:23.947Z,14.60
2023-05-04T09:01:54.951Z,14.61
2023-05-04T09:04:22.662Z,14.54
2023-05-04T09:06:49.477Z,14.56
2023-05-04T09:09:16.242Z,14.54
2023-05-04T09:11:43.687Z,14.63
2023-05-04T09:14:10.265Z,14.57
2023-05-04T09:16:37.941Z,14.69
2023-05-04T09:19:16.714Z,14.64
2023-05-04T09:21:44.041Z,14.79
2023-05-04T09:24:12.526Z,14.89
2023-05-04T09:26:39.313Z,14.76
2023-05-04T09:29:13.902Z,14.80
2023-05-04T09:31:48.769Z,14.91
2023-05-04T09:34:15.488Z,14.91
2023-05-04T09:36:44.809Z,14.82
2023-05-04T09:39:15.741Z,15.06
2023-05-04T09:41:42.476Z,15.12
2023-05-04T09:44:22.477Z,15.26
2023-05-04T09:46:55.839Z,15.36
2023-05-04T09:49:40.878Z,15.36
2023-05-04T09:52:07.408Z,15.62
2023-05-04T09:54:35.837Z,15.68
2023-05-04T09:57:23.529Z,15.65
2023-05-04T09:59:51.225Z,15.67
2023-05-04T10:02:23.022Z,15.65
2023-05-04T10:04:51.579Z,15.64
2023-05-04T10:07:19.120Z,15.64
2023-05-04T10:09:47.413Z,15.63
2023-05-04T10:12:14.481Z,15.80
2023-05-04T10:14:42.783Z,15.95
2023-05-04T10:17:25.950Z,16.00
2023-05-04T10:19:58.086Z,16.16
2023-05-04T10:22:54.918Z,16.17
2023-05-04T10:25:30.746Z,16.25
2023-05-04T10:28:37.513Z,16.37
2023-05-04T10:31:06.253Z,16.45
2023-05-04T10:33:43.125Z,16.43
2023-05-04T10:36:10.551Z,16.49
2023-05-04T10:38:40.017Z,16.79
2023-05-04T10:41:19.477Z,16.90
2023-05-04T10:43:52.941Z,16.97
2023-05-04T10:46:23.938Z,17.05
2023-05-04T10:48:51.037Z,17.30
2023-05-04T10:51:22.501Z,17.35
2023-05-04T10:53:49.264Z,17.50
2023-05-04T10:56:23.127Z,17.38
2023-05-04T10:58:50.004Z,17.38
2023-05-04T11:01:17.575Z,17.59
2023-05-04T11:03:44.460Z,17.68
2023-05-04T11:06:24.090Z,17.91
2023-05-04T11:09:01.692Z,17.99
2023-05-04T11:11:28.318Z,18.21
2023-05-04T11:13:56.660Z,18.29
2023-05-04T11:16:24.645Z,18.07
2023-05-04T11:18:51.420Z,18.08
2023-05-04T11:21:27.325Z,18.18
2023-05-04T11:23:58.289Z,18.02
2023-05-04T11:26:25.949Z,18.08
2023-05-04T11:28:52.560Z,18.21
2023-05-04T11:31:20.936Z,18.34
2023-05-04T11:33:53.160Z,18.26
2023-05-04T11:36:20.272Z,18.29
2023-05-04T11:38:47.562Z,18.43
2023-05-04T11:41:14.244Z,18.31
2023-05-04T11:43:43.894Z,18.42
2023-05-04T11:46:11.244Z,18.42
2023-05-04T11:48:38.591Z,18.41
2023-05-04T11:51:06.577Z,18.39
2023-05-04T11:53:40.751Z,18.59
2023-05-04T11:56:10.757Z,18.37
2023-05-04T11:58:37.714Z,18.15
2023-05-04T12:01:04.893Z,18.26
2023-05-04T12:03:48.529Z,18.08
2023-05-04T12:06:20.130Z,18.03
2023-05-04T12:08:46.809Z,18.03
2023-05-04T12:11:25.126Z,17.99
2023-05-04T12:14:11.868Z,17.80
2023-05-04T12:16:39.524Z,17.74
2023-05-04T12:19:08.810Z,17.83
2023-05-04T12:21:36.116Z,17.89
2023-05-04T12:24:04.049Z,17.75
2023-05-04T12:26:30.639Z,17.84
2023-05-04T12:28:57.338Z,17.78
2023-05-04T12:31:25.383Z,17.88
2023-05-04T12:33:52.528Z,17.86
2023-05-04T12:36:19.215Z,17.88
2023-05-04T12:38:46.133Z,17.81
2023-05-04T12:41:12.750Z,17.79
2023-05-04T12:43:39.548Z,17.91
2023-05-04T12:46:06.800Z,17.92
2023-05-04T12:48:33.566Z,17.95
2023-05-04T12:51:01.736Z,17.90
2023-05-04T12:53:30.044Z,17.89
2023-05-04T12:55:57.211Z,18.04
2023-05-04T12:58:23.784Z,18.10
2023-05-04T13:00:50.718Z,18.15
2023-05-04T13:03:18.499Z,18.12
2023-05-04T13:05:49.892Z,18.12
2023-05-04T13:08:18.225Z,18.09
2023-05-04T13:10:46.210Z,18.08
2023-05-04T13:13:15.142Z,18.22
2023-05-04T13:15:42.310Z,18.20
2023-05-04T13:18:08.784Z,18.06
2023-05-04T13:20:35.381Z,18.03
2023-05-04T13:23:01.878Z,18.05
2023-05-04T13:25:28.418Z,18.08
2023-05-04T13:27:55.218Z,18.27
2023-05-04T13:30:21.966Z,18.45
2023-05-04T13:32:49.135Z,18.53
2023-05-04T13:35:16.154Z,18.42
2023-05-04T13:37:42.638Z,18.50
2023-05-04T13:40:09.940Z,18.43
2023-05-04T13:42:37.397Z,18.55
2023-05-04T13:45:04.929Z,18.39
2023-05-04T13:47:33.714Z,18.29
2023-05-04T13:50:00.391Z,18.36
2023-05-04T13:52:27.130Z,18.52
2023-05-04T13:54:53.686Z,18.31
2023-05-04T13:57:20.157Z,18.49
2023-05-04T14:00:02.458Z,18.55
2023-05-04T14:02:37.251Z,18.64
2023-05-04T14:05:04.157Z,18.53
2023-05-04T14:07:30.955Z,18.56
2023-05-04T14:09:58.787Z,18.49
2023-05-04T14:12:25.300Z,18.50
2023-05-04T14:14:51.842Z,18.48
2023-05-04T14:17:18.559Z,18.43
2023-05-04T14:19:45.239Z,18.28
2023-05-04T14:22:11.716Z,18.42
2023-05-04T14:24:38.326Z,18.23
2023-05-04T14:27:04.961Z,18.19
2023-05-04T14:29:33.211Z,18.22
2023-05-04T14:32:00.713Z,18.29
2023-05-04T14:34:28.336Z,18.23
2023-05-04T14:36:54.856Z,18.24
2023-05-04T14:39:21.340Z,18.47
2023-05-04T14:41:48.020Z,18.40
2023-05-04T14:44:14.591Z,18.43
2023-05-04T14:46:41.309Z,18.43
2023-05-04T14:49:07.762Z,18.35
2023-05-04T14:51:35.475Z,18.55
2023-05-04T14:54:04.393Z,18.55
2023-05-04T14:56:30.870Z,18.57
2023-05-04T14:58:57.346Z,18.64
2023-05-04T15:01:27.219Z,18.58
2023-05-04T15:03:53.850Z,18.56
2023-05-04T15:06:20.518Z,18.71
2023-05-04T15:08:47.053Z,18.56
2023-05-04T15:11:13.904Z,18.64
2023-05-04T15:13:40.418Z,18.63
2023-05-04T15:16:07.537Z,18.63
2023-05-04T15:18:34.046Z,18.68
2023-05-04T15:21:00.596Z,18.87
2023-05-04T15:23:27.383Z,18.81
2023-05-04T15:25:53.878Z,18.73
2023-05-04T15:28:22.793Z,18.63
2023-05-04T15:30:49.390Z,18.65
2023-05-04T15:33:15.968Z,18.62
2023-05-04T15:35:42.697Z,18.54
2023-05-04T15:38:09.315Z,18.53
2023-05-04T15:40:36.328Z,18.63
2023-05-04T15:43:03.692Z,18.68
2023-05-04T15:45:30.341Z,18.62
2023-05-04T15:47:59.361Z,18.52
2023-05-04T15:50:26.294Z,18.69
2023-05-04T15:52:53.044Z,18.62
2023-05-04T15:55:26.010Z,18.65
2023-05-04T15:57:54.054Z,18.50
2023-05-04T16:00:21.239Z,18.56
2023-05-04T16:02:48.034Z,18.44
2023-05-04T16:05:14.775Z,18.44
2023-05-04T16:07:41.296Z,18.53
2023-05-04T16:10:08.849Z,18.51
2023-05-04T16:12:35.761Z,18.59
2023-05-04T16:15:02.300Z,18.54
2023-05-04T16:17:30.506Z,18.58
2023-05-04T16:19:57.070Z,18.54
2023-05-04T16:22:23.550Z,18.56
2023-05-04T16:24:50.024Z,18.53
2023-05-04T16:27:16.537Z,18.62
2023-05-04T16:29:43.096Z,18.63
2023-05-04T16:32:09.631Z,18.58
2023-05-04T16:34:36.086Z,18.58
2023-05-04T16:37:02.712Z,18.46
2023-05-04T16:39:31.243Z,18.47
2023-05-04T16:41:58.451Z,18.31
2023-05-04T16:44:25.406Z,18.25
2023-05-04T16:46:53.974Z,18.22
2023-05-04T16:49:21.907Z,18.24
2023-05-04T16:51:48.551Z,18.18
2023-05-04T16:54:16.390Z,18.17
2023-05-04T16:56:42.918Z,18.10
2023-05-04T16:59:09.498Z,17.96
2023-05-04T17:01:36.064Z,17.92
2023-05-04T17:04:02.928Z,18.07
2023-05-04T17:06:29.533Z,17.93
2023-05-04T17:08:56.302Z,17.94
2023-05-04T17:11:24.084Z,17.81
2023-05-04T17:13:51.150Z,17.71
2023-05-04T17:16:17.848Z,17.69
2023-05-04T17:18:45.837Z,17.63
2023-05-04T17:21:12.643Z,17.47
2023-05-04T17:23:39.154Z,17.40
2023-05-04T17:26:06.413Z,17.37
2023-05-04T17:28:32.912Z,17.20
2023-05-04T17:30:59.432Z,17.27
2023-05-04T17:33:25.945Z,17.25
2023-05-04T17:35:52.588Z,17.23
2023-05-04T17:38:19.161Z,17.12
2023-05-04T17:40:45.846Z,17.04
2023-05-04T17:43:12.399Z,16.92
2023-05-04T17:45:38.945Z,16.91
2023-05-04T17:48:06.269Z,16.84
2023-05-04T17:50:32.837Z,16.85
2023-05-04T17:52:59.335Z,16.73
2023-05-04T17:55:26.048Z,16.73
2023-05-04T17:57:53.964Z,16.67
2023-05-04T18:00:21.002Z,16.56
2023-05-04T18:02:47.668Z,16.54
2023-05-04T18:05:14.253Z,16.51
2023-05-04T18:07:40.787Z,16.45
2023-05-04T18:10:08.074Z,16.29
2023-05-04T18:12:35.647Z,16.20
2023-05-04T18:15:08.087Z,16.16
2023-05-04T18:17:35.895Z,16.12
2023-05-04T18:20:02.532Z,16.10
2023-05-04T18:22:29.011Z,16.16
2023-05-04T18:24:55.565Z,16.10
2023-05-04T18:27:22.246Z,16.03
2023-05-04T18:29:48.828Z,15.98
2023-05-04T18:32:15.339Z,15.89
2023-05-04T18:34:42.097Z,15.87
2023-05-04T18:37:08.833Z,15.83
2023-05-04T18:39:35.298Z,15.97
2023-05-04T18:42:01.867Z,15.91
2023-05-04T18:44:28.397Z,15.80
2023-05-04T18:46:55.058Z,15.77
2023-05-04T18:49:21.587Z,15.70
2023-05-04T18:51:48.219Z,15.69
2023-05-04T18:54:16.100Z,15.59
2023-05-04T18:56:43.398Z,15.58
2023-05-04T18:59:10.800Z,15.50
2023-05-04T19:01:38.563Z,15.52
2023-05-04T19:04:05.584Z,15.47
2023-05-04T19:06:32.962Z,15.45
2023-05-04T19:08:59.757Z,15.32
2023-05-04T19:11:26.590Z,15.42
2023-05-04T19:13:53.307Z,15.49
2023-05-04T19:16:20.013Z,15.34
2023-05-04T19:18:47.299Z,15.24
2023-05-04T19:21:13.854Z,15.21
2023-05-04T19:23:40.348Z,15.19
2023-05-04T19:26:06.957Z,15.17
2023-05-04T19:28:33.529Z,15.05
2023-05-04T19:31:00.463Z,15.04
2023-05-04T19:33:40.337Z,14.99
2023-05-04T19:36:13.934Z,14.98
2023-05-04T19:38:40.748Z,14.87
2023-05-04T19:41:07.332Z,14.81
2023-05-04T19:43:33.852Z,14.78
2023-05-04T19:46:02.249Z,14.78
2023-05-04T19:48:28.802Z,14.71
2023-05-04T19:50:55.995Z,14.67
2023-05-04T19:53:22.582Z,14.65
2023-05-04T19:55:49.090Z,14.70
2023-05-04T19:58:15.913Z,14.54
2023-05-04T20:00:42.463Z,14.58
2023-05-04T20:03:09.053Z,14.44
2023-05-04T20:05:35.702Z,14.43
2023-05-04T20:08:04.831Z,14.37
2023-05-04T20:10:31.873Z,14.35
2023-05-04T20:12:58.435Z,14.32
2023-05-04T20:15:25.204Z,14.22
2023-05-04T20:17:51.975Z,14.29
2023-05-04T20:20:20.460Z,14.19
2023-05-04T20:22:49.146Z,14.14
2023-05-04T20:25:15.777Z,13.98
2023-05-04T20:27:42.408Z,13.98
2023-05-04T20:30:09.895Z,13.94
2023-05-04T20:32:36.571Z,13.81
2023-05-04T20:35:03.790Z,13.99
2023-05-04T20:37:30.425Z,13.99
2023-05-04T20:39:57.196Z,13.91
2023-05-04T20:42:24.587Z,13.82
2023-05-04T20:44:51.301Z,13.76
2023-05-04T20:47:18.474Z,13.75
2023-05-04T20:49:45.061Z,13.67
2023-05-04T20:52:11.582Z,13.66
2023-05-04T20:54:38.084Z,13.57
2023-05-04T20:57:04.749Z,13.51
2023-05-04T20:59:31.352Z,13.48
2023-05-04T21:01:57.867Z,13.38
2023-05-04T21:04:24.432Z,13.35
2023-05-04T21:06:51.078Z,13.28
2023-05-04T21:09:17.623Z,13.17
2023-05-04T21:11:44.172Z,13.10
2023-05-04T21:14:10.903Z,12.88
2023-05-04T21:16:38.468Z,12.72
2023-05-04T21:19:04.957Z,12.63
2023-05-04T21:21:32.210Z,12.50
2023-05-04T21:23:58.711Z,12.40
2023-05-04T21:26:25.280Z,12.32
2023-05-04T21:28:52.240Z,12.27
2023-05-04T21:31:18.949Z,12.13
2023-05-04T21:33:45.521Z,12.04
2023-05-04T21:36:16.164Z,12.04
2023-05-04T21:38:43.253Z,11.95
2023-05-04T21:41:14.619Z,11.79
2023-05-04T21:43:41.776Z,11.70
2023-05-04T21:46:09.136Z,11.69
2023-05-04T21:48:36.025Z,11.63
2023-05-04T21:51:02.519Z,11.62
2023-05-04T21:53:33.277Z,11.60
2023-05-04T21:56:01.116Z,11.49
2023-05-04T21:58:27.734Z,11.45
2023-05-04T22:00:54.817Z,11.31
2023-05-04T22:03:21.715Z,11.37
2023-05-04T22:05:57.516Z,11.30
2023-05-04T22:08:25.156Z,11.27
2023-05-04T22:10:52.592Z,11.13
2023-05-04T22:13:19.785Z,11.12
2023-05-04T22:15:49.734Z,11.04
2023-05-04T22:18:17.163Z,11.04
2023-05-04T22:20:43.704Z,11.08
2023-05-04T22:23:10.603Z,10.93
2023-05-04T22:25:37.631Z,10.86
2023-05-04T22:28:04.348Z,10.75
2023-05-04T22:30:31.026Z,10.75
2023-05-04T22:32:57.938Z,10.74
2023-05-04T22:35:24.586Z,10.63
2023-05-04T22:37:51.147Z,10.65
2023-05-04T22:40:17.758Z,10.50
2023-05-04T22:42:47.525Z,10.56
2023-05-04T22:45:14.807Z,10.53
2023-05-04T22:47:42.165Z,10.49
2023-05-04T22:50:09.956Z,10.45
2023-05-04T22:52:37.575Z,10.42
2023-05-04T22:55:05.737Z,10.43
2023-05-04T22:57:32.305Z,10.37
2023-05-04T22:59:58.801Z,10.35
2023-05-04T23:02:25.647Z,10.30
2023-05-04T23:04:53.183Z,10.41
2023-05-04T23:07:20.244Z,10.37
2023-05-04T23:09:47.116Z,10.26
2023-05-04T23:12:14.015Z,10.20
2023-05-04T23:14:40.946Z,10.12
2023-05-04T23:17:07.737Z,10.02
2023-05-04T23:19:34.252Z,9.91
2023-05-04T23:22:00.942Z,9.98
2023-05-04T23:24:27.456Z,9.91
2023-05-04T23:26:54.139Z,9.92
2023-05-04T23:29:20.828Z,9.92
2023-05-04T23:31:47.371Z,9.83
2023-05-04T23:34:13.962Z,9.76
2023-05-04T23:36:40.460Z,9.74
2023-05-04T23:39:07.105Z,9.66
2023-05-04T23:41:34.151Z,9.68
2023-05-04T23:44:01.791Z,9.65
2023-05-04T23:46:28.363Z,9.56
2023-05-04T23:48:55.040Z,9.59
2023-05-04T23:51:21.572Z,9.46
2023-05-04T23:53:48.205Z,9.43
2023-05-04T23:56:14.772Z,9.43
2023-05-04T23:58:41.979Z,9.36
